createdAt,value
2017-12-04T00:00:43.177Z,99877.37
2017-12-04T00:03:09.477Z,99881.86
2017-12-04T00:05:35.868Z,99878.87
2017-12-04T00:08:02.316Z,99884.69
2017-12-04T00:10:28.720Z,99884.30
2017-12-04T00:12:55.141Z,99891.92
2017-12-04T00:15:21.572Z,99895.08
2017-12-04T00:17:47.957Z,99896.03
2017-12-04T00:20:14.358Z,99893.70
2017-12-04T00:22:40.833Z,99892.38
2017-12-04T00:25:07.244Z,99894.30
2017-12-04T00:27:33.648Z,99889.52
2017-12-04T00:30:00.012Z,99888.48
2017-12-04T00:32:26.380Z,99888.09
2017-12-04T00:34:52.731Z,99891.70
2017-12-04T00:37:19.116Z,99896.00
2017-12-04T00:39:45.592Z,99891.42
2017-12-04T00:42:11.940Z,99889.52
2017-12-04T00:44:38.459Z,99894.68
2017-12-04T00:47:04.892Z,99901.55
2017-12-04T00:49:31.284Z,99898.88
2017-12-04T00:51:57.681Z,99897.53
2017-12-04T00:54:24.019Z,99908.94
2017-12-04T00:56:50.361Z,99908.23
2017-12-04T00:59:16.784Z,99902.05
2017-12-04T01:01:43.132Z,99910.29
2017-12-04T01:04:09.510Z,99914.80
2017-12-04T01:06:35.924Z,99914.59
2017-12-04T01:09:02.408Z,99916.52
2017-12-04T01:11:28.792Z,99921.91
2017-12-04T01:13:55.224Z,99919.70
2017-12-04T01:16:21.579Z,99921.85
2017-12-04T01:18:47.928Z,99911.89
2017-12-04T01:21:14.371Z,99916.81
2017-12-04T01:23:40.717Z,99924.04
2017-12-04T01:26:07.084Z,99923.91
2017-12-04T01:28:33.518Z,99922.09
2017-12-04T01:30:59.868Z,99921.45
2017-12-04T01:33:26.408Z,99918.92
2017-12-04T01:35:52.815Z,99913.19
2017-12-04T01:38:19.176Z,99917.17
2017-12-04T01:40:45.610Z,99921.62
2017-12-04T01:43:12.059Z,99919.64
2017-12-04T01:45:38.472Z,99915.67
2017-12-04T01:48:04.844Z,99917.69
2017-12-04T01:50:31.341Z,99921.41
2017-12-04T01:52:57.740Z,99912.44
2017-12-04T01:55:24.104Z,99922.19
2017-12-04T01:57:50.543Z,99913.70
2017-12-04T02:00:16.949Z,99917.34
2017-12-04T02:02:43.460Z,99921.78
2017-12-04T02:05:09.888Z,99917.20
2017-12-04T02:07:36.310Z,99914.22
2017-12-04T02:10:02.780Z,99919.17
2017-12-04T02:12:29.219Z,99915.34
2017-12-04T02:14:55.561Z,99925.81
2017-12-04T02:17:21.925Z,99920.14
2017-12-04T02:19:48.304Z,99919.74
2017-12-04T02:22:14.748Z,99919.41
2017-12-04T02:24:41.306Z,99921.58
2017-12-04T02:27:07.817Z,99917.20
2017-12-04T02:29:34.235Z,99917.74
2017-12-04T02:32:00.711Z,99922.44
2017-12-04T02:34:27.124Z,99924.98
2017-12-04T02:36:53.580Z,99925.62
2017-12-04T02:39:19.925Z,99921.75
2017-12-04T02:41:46.420Z,99923.01
2017-12-04T02:44:12.848Z,99922.72
2017-12-04T02:46:39.293Z,99923.15
2017-12-04T02:49:05.760Z,99920.99
2017-12-04T02:51:32.174Z,99926.23
2017-12-04T02:53:58.616Z,99925.61
2017-12-04T02:56:25.191Z,99931.80
2017-12-04T02:58:51.783Z,99936.20
2017-12-04T03:01:18.228Z,99940.50
2017-12-04T03:03:44.680Z,99944.97
2017-12-04T03:06:11.028Z,99945.67
2017-12-04T03:08:37.393Z,99945.33
2017-12-04T03:11:03.785Z,99950.73
2017-12-04T03:13:30.158Z,99953.45
2017-12-04T03:15:56.560Z,99959.38
2017-12-04T03:18:23.021Z,99957.33
2017-12-04T03:20:49.448Z,99954.95
2017-12-04T03:23:15.896Z,99960.77
2017-12-04T03:25:42.448Z,99956.97
2017-12-04T03:28:08.911Z,99954.02
2017-12-04T03:30:35.350Z,99960.48
2017-12-04T03:33:01.952Z,99967.19
2017-12-04T03:35:28.364Z,99964.72
2017-12-04T03:37:54.780Z,99956.36
2017-12-04T03:40:21.248Z,99967.33
2017-12-04T03:42:47.608Z,99969.16
2017-12-04T03:45:14.005Z,99973.05
2017-12-04T03:47:40.479Z,99966.52
2017-12-04T03:50:06.828Z,99975.30
2017-12-04T03:52:33.189Z,99972.58
2017-12-04T03:54:59.572Z,99972.41
2017-12-04T03:57:25.908Z,99975.27
2017-12-04T03:59:52.297Z,99973.91
2017-12-04T04:02:18.744Z,99980.16
2017-12-04T04:04:45.075Z,99976.44
2017-12-04T04:07:11.428Z,99986.95
2017-12-04T04:09:37.951Z,99980.05
2017-12-04T04:12:04.325Z,99990.92
2017-12-04T04:14:30.672Z,99985.58
2017-12-04T04:16:57.139Z,99985.37
2017-12-04T04:19:23.492Z,99992.05
2017-12-04T04:21:49.839Z,99982.08
2017-12-04T04:24:16.293Z,99983.37
2017-12-04T04:26:42.643Z,99977.47
2017-12-04T04:29:08.983Z,99976.98
2017-12-04T04:31:35.369Z,99968.08
2017-12-04T04:34:01.759Z,99964.61
2017-12-04T04:36:28.113Z,99967.85
2017-12-04T04:38:54.496Z,99982.80
2017-12-04T04:41:20.901Z,99976.72
2017-12-04T04:43:47.293Z,99980.88
2017-12-04T04:46:13.828Z,99983.94
2017-12-04T04:48:40.208Z,99980.39
2017-12-04T04:51:06.669Z,99982.33
2017-12-04T04:53:33.229Z,99988.66
2017-12-04T04:55:59.663Z,99994.25
2017-12-04T04:58:26.056Z,99991.45
2017-12-04T05:00:52.461Z,99993.85
2017-12-04T05:03:18.897Z,99995.52
2017-12-04T05:05:45.325Z,99999.30
2017-12-04T05:08:11.934Z,99996.16
2017-12-04T05:10:38.340Z,99997.85
2017-12-04T05:13:04.800Z,99993.91
2017-12-04T05:15:31.256Z,99993.98
2017-12-04T05:17:57.643Z,99991.38
2017-12-04T05:20:24.116Z,99994.79
2017-12-04T05:22:50.636Z,99997.59
2017-12-04T05:25:17.000Z,99997.42
2017-12-04T05:27:43.503Z,100006.02
2017-12-04T05:30:09.905Z,100005.96
2017-12-04T05:32:36.284Z,100002.50
2017-12-04T05:35:02.872Z,100005.19
2017-12-04T05:37:29.370Z,100002.55
2017-12-04T05:39:55.713Z,100010.94
2017-12-04T05:42:22.102Z,100003.95
2017-12-04T05:44:48.512Z,99998.69
2017-12-04T05:47:15.079Z,99978.50
2017-12-04T05:49:41.483Z,99978.87
2017-12-04T05:52:07.920Z,99986.74
2017-12-04T05:54:34.269Z,100001.23
2017-12-04T05:57:00.710Z,100000.78
2017-12-04T05:59:27.084Z,99999.58
2017-12-04T06:01:53.483Z,100004.44
2017-12-04T06:04:19.816Z,100004.84
2017-12-04T06:06:46.232Z,100009.43
2017-12-04T06:09:12.580Z,100013.59
2017-12-04T06:11:39.034Z,100006.34
2017-12-04T06:14:05.556Z,100000.56
2017-12-04T06:16:31.960Z,100000.44
2017-12-04T06:18:58.436Z,100003.93
2017-12-04T06:21:24.897Z,100001.56
2017-12-04T06:23:51.248Z,100007.31
2017-12-04T06:26:17.600Z,100009.20
2017-12-04T06:28:44.093Z,100015.86
2017-12-04T06:31:10.493Z,100021.65
2017-12-04T06:33:36.913Z,100033.75
2017-12-04T06:36:03.389Z,100035.95
2017-12-04T06:38:30.034Z,100048.70
2017-12-04T06:40:56.488Z,100054.37
2017-12-04T06:43:22.884Z,100049.40
2017-12-04T06:45:49.231Z,100045.31
2017-12-04T06:48:15.676Z,100047.15
2017-12-04T06:50:42.100Z,100044.03
2017-12-04T06:53:08.522Z,100048.94
2017-12-04T06:55:34.924Z,100055.36
2017-12-04T06:58:01.437Z,100049.17
2017-12-04T07:00:27.826Z,100054.44
2017-12-04T07:02:54.232Z,100057.72
2017-12-04T07:05:21.970Z,100062.70
2017-12-04T07:07:48.496Z,100063.25
2017-12-04T07:10:14.840Z,100065.04
2017-12-04T07:12:41.371Z,100068.25
2017-12-04T07:15:07.738Z,100056.05
2017-12-04T07:17:35.057Z,100064.94
2017-12-04T07:20:01.933Z,100065.35
2017-12-04T07:22:28.336Z,100066.22
2017-12-04T07:24:54.689Z,100064.23
2017-12-04T07:27:21.197Z,100071.16
2017-12-04T07:29:47.633Z,100085.66
2017-12-04T07:32:14.012Z,100085.53
2017-12-04T07:34:40.396Z,100097.45
2017-12-04T07:37:06.727Z,100091.27
2017-12-04T07:39:33.132Z,100092.64
2017-12-04T07:41:59.568Z,100095.95
2017-12-04T07:44:25.935Z,100099.78
2017-12-04T07:46:52.293Z,100096.23
2017-12-04T07:49:18.713Z,100086.41
2017-12-04T07:51:45.049Z,100092.23
2017-12-04T07:54:11.416Z,100097.16
2017-12-04T07:56:37.792Z,100104.50
2017-12-04T07:59:04.218Z,100093.09
2017-12-04T08:01:30.568Z,100088.17
2017-12-04T08:03:57.083Z,100095.42
2017-12-04T08:06:23.464Z,100091.36
2017-12-04T08:08:49.824Z,100094.42
2017-12-04T08:11:16.241Z,100088.41
2017-12-04T08:13:42.611Z,100084.23
2017-12-04T08:16:08.980Z,100086.45
2017-12-04T08:18:35.410Z,100090.34
2017-12-04T08:21:01.913Z,100085.72
2017-12-04T08:23:28.351Z,100090.02
2017-12-04T08:25:54.796Z,100083.66
2017-12-04T08:28:21.213Z,100079.65
2017-12-04T08:30:48.118Z,100067.08
2017-12-04T08:33:14.585Z,100079.25
2017-12-04T08:35:41.025Z,100085.84
2017-12-04T08:38:07.371Z,100079.80
2017-12-04T08:40:33.788Z,100071.05
2017-12-04T08:43:00.201Z,100065.62
2017-12-04T08:45:26.597Z,100061.92
2017-12-04T08:47:53.012Z,100064.14
2017-12-04T08:50:19.357Z,100067.64
2017-12-04T08:52:45.705Z,100070.19
2017-12-04T08:55:12.120Z,100071.02
2017-12-04T08:57:38.470Z,100070.51
2017-12-04T09:00:04.828Z,100064.80
2017-12-04T09:02:31.278Z,100061.24
2017-12-04T09:04:57.648Z,100064.13
2017-12-04T09:07:24.032Z,100070.58
2017-12-04T09:09:50.670Z,100078.72
2017-12-04T09:12:17.044Z,100077.92
2017-12-04T09:14:43.476Z,100078.15
2017-12-04T09:17:09.903Z,100079.98
2017-12-04T09:19:36.292Z,100072.59
2017-12-04T09:22:02.707Z,100075.50
2017-12-04T09:24:29.123Z,100080.95
2017-12-04T09:26:55.579Z,100078.84
2017-12-04T09:29:22.128Z,100081.88
2017-12-04T09:31:48.602Z,100072.59
2017-12-04T09:34:15.014Z,100070.95
2017-12-04T09:36:41.551Z,100072.01
2017-12-04T09:39:07.969Z,100067.16
2017-12-04T09:41:34.369Z,100055.04
2017-12-04T09:44:00.788Z,100044.83
2017-12-04T09:46:27.232Z,100030.58
2017-12-04T09:48:53.700Z,100035.80
2017-12-04T09:51:20.292Z,100024.92
2017-12-04T09:53:46.720Z,100033.27
2017-12-04T09:56:13.144Z,100040.13
2017-12-04T09:58:39.549Z,100039.61
2017-12-04T10:01:06.015Z,100045.75
2017-12-04T10:03:32.460Z,100046.12
2017-12-04T10:05:58.837Z,100053.00
2017-12-04T10:08:25.268Z,100044.09
2017-12-04T10:10:51.668Z,100050.62
2017-12-04T10:13:18.089Z,100058.17
2017-12-04T10:15:44.540Z,100054.58
2017-12-04T10:18:10.919Z,100052.23
2017-12-04T10:20:37.323Z,100056.52
2017-12-04T10:23:03.744Z,100052.19
2017-12-04T10:25:30.150Z,100054.45
2017-12-04T10:27:56.553Z,100061.19
2017-12-04T10:30:23.088Z,100059.10
2017-12-04T10:32:49.506Z,100053.94
2017-12-04T10:35:16.161Z,100053.22
2017-12-04T10:37:42.862Z,100040.78
2017-12-04T10:40:09.368Z,100047.73
2017-12-04T10:42:35.789Z,100050.26
2017-12-04T10:45:02.262Z,100042.50
2017-12-04T10:47:28.694Z,100039.11
2017-12-04T10:49:55.127Z,100033.25
2017-12-04T10:52:21.656Z,100017.30
2017-12-04T10:54:48.064Z,100005.42
2017-12-04T10:57:14.499Z,100004.21
2017-12-04T10:59:41.003Z,100002.36
2017-12-04T11:02:07.464Z,100003.13
2017-12-04T11:04:33.972Z,99987.65
2017-12-04T11:07:00.464Z,99981.81
2017-12-04T11:09:26.876Z,99990.78
2017-12-04T11:11:53.295Z,99997.31
2017-12-04T11:14:20.646Z,99996.20
2017-12-04T11:16:47.028Z,99994.34
2017-12-04T11:19:13.393Z,99991.05
2017-12-04T11:21:39.888Z,99995.66
2017-12-04T11:24:06.356Z,99984.39
2017-12-04T11:26:32.816Z,99981.42
2017-12-04T11:28:59.228Z,99981.08
2017-12-04T11:31:25.661Z,99991.84
2017-12-04T11:33:52.117Z,99987.86
2017-12-04T11:36:18.597Z,99966.34
2017-12-04T11:38:45.234Z,99966.75
2017-12-04T11:41:11.668Z,99957.41
2017-12-04T11:43:38.136Z,99950.41
2017-12-04T11:46:04.543Z,99936.48
2017-12-04T11:48:30.988Z,99940.62
2017-12-04T11:50:57.464Z,99945.65
2017-12-04T11:53:23.844Z,99932.29
2017-12-04T11:55:50.272Z,99930.20
2017-12-04T11:58:16.745Z,99932.79
2017-12-04T12:00:43.138Z,99934.84
2017-12-04T12:03:09.517Z,99940.06
2017-12-04T12:05:35.932Z,99942.20
2017-12-04T12:08:02.284Z,99952.36
2017-12-04T12:10:28.664Z,99949.84
2017-12-04T12:12:55.259Z,99952.05
2017-12-04T12:15:21.870Z,99960.12
2017-12-04T12:17:48.242Z,99959.24
2017-12-04T12:20:14.626Z,99964.76
2017-12-04T12:22:41.000Z,99973.64
2017-12-04T12:25:08.523Z,99980.13
2017-12-04T12:27:35.502Z,99980.70
2017-12-04T12:30:01.873Z,99971.54
2017-12-04T12:32:28.264Z,99967.79
2017-12-04T12:34:54.745Z,99968.39
2017-12-04T12:37:21.088Z,99978.33
2017-12-04T12:39:47.481Z,99972.34
2017-12-04T12:42:13.884Z,99965.47
2017-12-04T12:44:40.300Z,99959.74
2017-12-04T12:47:06.710Z,99968.77
2017-12-04T12:49:33.124Z,99979.02
2017-12-04T12:51:59.634Z,99983.31
2017-12-04T12:54:26.000Z,99988.34
2017-12-04T12:56:52.436Z,99992.94
2017-12-04T12:59:18.816Z,99994.89
2017-12-04T13:01:45.192Z,99990.40
2017-12-04T13:04:11.586Z,99990.40
2017-12-04T13:06:37.930Z,99999.61
2017-12-04T13:09:04.452Z,99991.39
2017-12-04T13:11:30.892Z,99988.06
2017-12-04T13:13:57.416Z,99983.92
2017-12-04T13:16:23.771Z,99983.99
2017-12-04T13:18:50.181Z,99981.97
2017-12-04T13:21:16.528Z,99983.98
2017-12-04T13:23:43.134Z,99981.70
2017-12-04T13:26:09.573Z,99984.66
2017-12-04T13:28:35.924Z,99983.97
2017-12-04T13:31:02.468Z,99982.11
2017-12-04T13:33:41.364Z,99982.22
2017-12-04T13:36:19.964Z,99988.44
2017-12-04T13:38:46.412Z,99982.53
2017-12-04T13:41:12.761Z,99988.87
2017-12-04T13:43:39.113Z,99991.76
2017-12-04T13:46:05.540Z,99990.92
2017-12-04T13:48:31.917Z,99990.06
2017-12-04T13:50:58.348Z,99996.33
2017-12-04T13:53:24.756Z,99999.50
2017-12-04T13:55:51.296Z,100002.87
2017-12-04T13:58:17.777Z,99999.69
2017-12-04T14:00:44.204Z,100002.75
2017-12-04T14:03:10.621Z,100002.81
2017-12-04T14:05:36.956Z,100010.61
2017-12-04T14:08:03.383Z,100006.82
2017-12-04T14:10:29.738Z,100012.57
2017-12-04T14:12:56.173Z,100013.66
2017-12-04T14:15:22.731Z,100017.30
2017-12-04T14:17:49.448Z,100024.58
2017-12-04T14:20:15.850Z,100020.03
2017-12-04T14:22:42.429Z,100022.89
2017-12-04T14:25:13.822Z,100027.03
2017-12-04T14:27:41.019Z,100027.28
2017-12-04T14:30:07.404Z,100024.92
2017-12-04T14:32:33.811Z,100018.49
2017-12-04T14:35:00.339Z,100020.51
2017-12-04T14:37:26.726Z,100019.56
2017-12-04T14:39:53.121Z,100017.92
2017-12-04T14:42:19.517Z,100016.23
2017-12-04T14:44:45.924Z,100011.52
2017-12-04T14:47:13.076Z,100014.75
2017-12-04T14:49:39.512Z,100011.89
2017-12-04T14:52:06.035Z,100017.36
2017-12-04T14:54:32.708Z,100019.56
2017-12-04T14:56:59.216Z,100015.92
2017-12-04T14:59:25.796Z,100018.64
2017-12-04T15:01:52.489Z,100009.08
2017-12-04T15:04:19.040Z,100013.81
2017-12-04T15:06:45.541Z,100014.00
2017-12-04T15:09:12.028Z,100011.15
2017-12-04T15:11:38.679Z,100011.72
2017-12-04T15:14:05.285Z,100017.76
2017-12-04T15:16:31.728Z,100022.36
2017-12-04T15:18:58.148Z,100024.03
2017-12-04T15:21:24.614Z,100032.48
2017-12-04T15:23:51.164Z,100031.59
2017-12-04T15:26:17.916Z,100031.51
2017-12-04T15:28:44.389Z,100033.55
2017-12-04T15:31:10.851Z,100037.52
2017-12-04T15:33:37.382Z,100044.77
2017-12-04T15:36:03.963Z,100042.38
2017-12-04T15:38:30.428Z,100047.78
2017-12-04T15:40:56.966Z,100044.92
2017-12-04T15:43:23.576Z,100050.59
2017-12-04T15:45:50.035Z,100052.94
2017-12-04T15:48:16.597Z,100056.16
2017-12-04T15:50:43.144Z,100067.61
2017-12-04T15:53:09.874Z,100076.63
2017-12-04T15:55:36.309Z,100077.46
2017-12-04T15:58:02.792Z,100075.69
2017-12-04T16:00:29.216Z,100072.50
2017-12-04T16:02:55.661Z,100072.24
2017-12-04T16:05:22.161Z,100069.34
2017-12-04T16:07:49.322Z,100070.82
2017-12-04T16:10:15.764Z,100071.19
2017-12-04T16:12:42.219Z,100074.17
2017-12-04T16:15:08.640Z,100076.55
2017-12-04T16:17:35.033Z,100087.53
2017-12-04T16:20:02.033Z,100082.61
2017-12-04T16:22:28.492Z,100078.84
2017-12-04T16:24:54.879Z,100076.92
2017-12-04T16:27:21.965Z,100081.55
2017-12-04T16:29:48.368Z,100078.57
2017-12-04T16:32:14.785Z,100076.66
2017-12-04T16:34:41.290Z,100075.41
2017-12-04T16:37:07.700Z,100077.89
2017-12-04T16:39:34.112Z,100075.20
2017-12-04T16:42:00.566Z,100077.09
2017-12-04T16:44:27.023Z,100079.94
2017-12-04T16:46:53.560Z,100085.91
2017-12-04T16:49:20.123Z,100086.59
2017-12-04T16:51:46.526Z,100093.31
2017-12-04T16:54:12.941Z,100089.98
2017-12-04T16:56:39.387Z,100087.20
2017-12-04T16:59:05.808Z,100087.95
2017-12-04T17:01:32.276Z,100088.22
2017-12-04T17:03:58.757Z,100095.23
2017-12-04T17:06:25.209Z,100091.23
2017-12-04T17:08:51.600Z,100089.11
2017-12-04T17:11:18.017Z,100087.05
2017-12-04T17:13:44.406Z,100083.61
2017-12-04T17:16:10.801Z,100077.61
2017-12-04T17:18:37.209Z,100087.09
2017-12-04T17:21:03.613Z,100083.84
2017-12-04T17:23:30.016Z,100086.67
2017-12-04T17:25:56.450Z,100079.50
2017-12-04T17:28:23.107Z,100089.89
2017-12-04T17:30:49.497Z,100089.75
2017-12-04T17:33:16.049Z,100092.13
2017-12-04T17:35:42.431Z,100097.23
2017-12-04T17:38:08.850Z,100096.80
2017-12-04T17:40:35.325Z,100090.14
2017-12-04T17:43:01.705Z,100106.36
2017-12-04T17:45:28.096Z,100097.97
2017-12-04T17:47:54.561Z,100103.45
2017-12-04T17:50:21.210Z,100105.33
2017-12-04T17:52:47.596Z,100103.88
2017-12-04T17:55:14.109Z,100108.00
2017-12-04T17:57:40.508Z,100110.59
2017-12-04T18:00:06.899Z,100113.09
2017-12-04T18:02:33.328Z,100110.27
2017-12-04T18:04:59.808Z,100115.82
2017-12-04T18:07:26.256Z,100118.07
2017-12-04T18:09:52.727Z,100118.44
2017-12-04T18:12:19.146Z,100125.98
2017-12-04T18:14:45.553Z,100132.31
2017-12-04T18:17:12.032Z,100121.77
2017-12-04T18:19:38.538Z,100128.05
2017-12-04T18:22:05.072Z,100133.52
2017-12-04T18:24:31.537Z,100131.48
2017-12-04T18:26:57.985Z,100129.98
2017-12-04T18:29:24.444Z,100133.44
2017-12-04T18:31:50.933Z,100139.27
2017-12-04T18:34:17.380Z,100137.97
2017-12-04T18:36:43.833Z,100138.58
2017-12-04T18:39:11.056Z,100145.14
2017-12-04T18:41:37.512Z,100149.62
2017-12-04T18:44:03.956Z,100153.55
2017-12-04T18:46:30.424Z,100149.41
2017-12-04T18:48:56.946Z,100156.44
2017-12-04T18:51:23.604Z,100157.14
2017-12-04T18:53:50.073Z,100153.47
2017-12-04T18:56:16.556Z,100149.67
2017-12-04T18:58:42.988Z,100151.84
2017-12-04T19:01:09.509Z,100154.91
2017-12-04T19:03:35.952Z,100152.48
2017-12-04T19:06:02.398Z,100154.39
2017-12-04T19:08:28.911Z,100153.98
2017-12-04T19:10:55.353Z,100153.28
2017-12-04T19:13:21.769Z,100152.26
2017-12-04T19:15:48.239Z,100150.87
2017-12-04T19:18:14.712Z,100157.72
2017-12-04T19:20:41.153Z,100158.23
2017-12-04T19:23:07.672Z,100155.89
2017-12-04T19:25:34.121Z,100150.14
2017-12-04T19:28:00.546Z,100153.03
2017-12-04T19:30:27.025Z,100162.74
2017-12-04T19:32:53.502Z,100152.75
2017-12-04T19:35:20.470Z,100155.81
2017-12-04T19:37:47.274Z,100148.28
2017-12-04T19:40:13.741Z,100163.59
2017-12-04T19:42:40.220Z,100153.98
2017-12-04T19:45:06.709Z,100166.08
2017-12-04T19:47:33.160Z,100166.11
2017-12-04T19:49:59.613Z,100172.91
2017-12-04T19:52:26.157Z,100174.05
2017-12-04T19:54:52.593Z,100179.87
2017-12-04T19:57:19.149Z,100186.16
2017-12-04T19:59:45.612Z,100189.13
2017-12-04T20:02:12.151Z,100200.74
2017-12-04T20:04:38.601Z,100200.95
2017-12-04T20:07:05.073Z,100212.02
2017-12-04T20:09:31.490Z,100227.16
2017-12-04T20:11:57.905Z,100228.58
2017-12-04T20:14:24.388Z,100221.20
2017-12-04T20:16:50.922Z,100223.36
2017-12-04T20:19:17.441Z,100222.44
2017-12-04T20:21:43.965Z,100216.84
2017-12-04T20:24:10.452Z,100218.70
2017-12-04T20:26:36.945Z,100218.68
2017-12-04T20:29:03.473Z,100214.22
2017-12-04T20:31:29.948Z,100214.88
2017-12-04T20:33:56.345Z,100211.52
2017-12-04T20:36:22.816Z,100206.57
2017-12-04T20:38:49.253Z,100221.38
2017-12-04T20:41:15.700Z,100205.61
2017-12-04T20:43:42.185Z,100198.06
2017-12-04T20:46:08.960Z,100207.83
2017-12-04T20:48:35.382Z,100198.75
2017-12-04T20:51:01.876Z,100211.89
2017-12-04T20:53:28.338Z,100205.04
2017-12-04T20:55:54.882Z,100207.67
2017-12-04T20:58:21.394Z,100206.45
2017-12-04T21:00:48.029Z,100211.70
2017-12-04T21:03:14.476Z,100216.82
2017-12-04T21:05:40.947Z,100215.16
2017-12-04T21:08:19.396Z,100212.95
2017-12-04T21:10:58.106Z,100214.75
2017-12-04T21:13:36.539Z,100221.13
2017-12-04T21:16:25.712Z,100211.96
2017-12-04T21:18:52.275Z,100219.47
2017-12-04T21:21:18.685Z,100215.47
2017-12-04T21:23:45.164Z,100215.60
2017-12-04T21:26:11.600Z,100217.94
2017-12-04T21:28:38.051Z,100223.92
2017-12-04T21:31:04.516Z,100221.31
2017-12-04T21:33:30.957Z,100219.28
2017-12-04T21:35:57.512Z,100217.08
2017-12-04T21:38:24.004Z,100212.41
2017-12-04T21:40:50.456Z,100211.64
2017-12-04T21:43:16.884Z,100212.69
2017-12-04T21:45:43.346Z,100212.98
2017-12-04T21:48:09.781Z,100217.94
2017-12-04T21:50:36.187Z,100220.15
2017-12-04T21:53:02.648Z,100217.88
2017-12-04T21:55:29.108Z,100226.52
2017-12-04T21:57:55.547Z,100233.50
2017-12-04T22:00:22.050Z,100230.63
2017-12-04T22:02:48.483Z,100235.59
2017-12-04T22:05:14.932Z,100238.41
2017-12-04T22:07:41.454Z,100247.00
2017-12-04T22:10:07.880Z,100253.55
2017-12-04T22:12:34.315Z,100253.80
2017-12-04T22:15:00.788Z,100253.75
2017-12-04T22:17:27.236Z,100253.83
2017-12-04T22:19:53.679Z,100258.75
2017-12-04T22:22:20.128Z,100258.23
2017-12-04T22:24:46.564Z,100253.84
2017-12-04T22:27:12.989Z,100242.20
2017-12-04T22:29:39.633Z,100243.02
2017-12-04T22:32:06.096Z,100244.00
2017-12-04T22:34:32.552Z,100236.92
2017-12-04T22:36:59.015Z,100237.47
2017-12-04T22:39:25.477Z,100249.63
2017-12-04T22:41:51.932Z,100250.02
2017-12-04T22:44:18.420Z,100250.83
2017-12-04T22:46:44.870Z,100242.08
2017-12-04T22:49:11.306Z,100243.98
2017-12-04T22:51:37.772Z,100252.78
2017-12-04T22:54:04.260Z,100242.03
2017-12-04T22:56:30.711Z,100244.25
2017-12-04T22:58:57.245Z,100234.73
2017-12-04T23:01:23.657Z,100238.91
2017-12-04T23:03:50.108Z,100242.47
2017-12-04T23:06:16.623Z,100260.20
2017-12-04T23:08:43.056Z,100246.47
2017-12-04T23:11:09.641Z,100250.53
2017-12-04T23:13:36.176Z,100251.16
2017-12-04T23:16:02.660Z,100248.56
2017-12-04T23:18:29.121Z,100243.55
2017-12-04T23:20:55.650Z,100240.34
2017-12-04T23:23:22.089Z,100232.55
2017-12-04T23:25:48.532Z,100238.12
2017-12-04T23:28:14.995Z,100217.83
2017-12-04T23:30:41.538Z,100216.17
2017-12-04T23:33:08.028Z,100222.47
2017-12-04T23:35:34.528Z,100222.47
2017-12-04T23:38:00.952Z,100223.05
2017-12-04T23:40:27.372Z,100206.77
2017-12-04T23:42:53.759Z,100218.46
2017-12-04T23:45:20.100Z,100226.86
2017-12-04T23:47:46.464Z,100237.06
2017-12-04T23:50:12.875Z,100238.27
2017-12-04T23:52:39.248Z,100227.88
2017-12-04T23:55:05.621Z,100236.72
2017-12-04T23:57:32.031Z,100245.66
2017-12-04T23:59:58.415Z,100250.27
